sensor_id;sensor_type;location;lat;lon;timestamp;P1;durP1;ratioP1;P2;durP2;ratioP2
80111;SDS011;69421;51.062;3.728;2023-05-21T00:01:33;4.35;;;2.63;;
80111;SDS011;69421;51.062;3.728;2023-05-21T00:03:59;4.05;;;2.88;;
80111;SDS011;69421;51.062;3.728;2023-05-21T00:06:25;5.97;;;3.30;;
80111;SDS011;69421;51.062;3.728;2023-05-21T00:08:51;3.05;;;2.53;;
80111;SDS011;69421;51.062;3.728;2023-05-21T00:11:17;4.65;;;2.90;;
80111;SDS011;69421;51.062;3.728;2023-05-21T00:13:42;4.28;;;2.97;;
80111;SDS011;69421;51.062;3.728;2023-05-21T00:16:08;5.65;;;2.90;;
80111;SDS011;69421;51.062;3.728;2023-05-21T00:18:35;4.03;;;2.35;;
80111;SDS011;69421;51.062;3.728;2023-05-21T00:21:03;5.60;;;2.80;;
80111;SDS011;69421;51.062;3.728;2023-05-21T00:23:29;3.90;;;2.65;;
80111;SDS011;69421;51.062;3.728;2023-05-21T00:25:57;4.72;;;2.97;;
80111;SDS011;69421;51.062;3.728;2023-05-21T00:28:23;5.03;;;3.30;;
80111;SDS011;69421;51.062;3.728;2023-05-21T00:30:49;5.10;;;3.70;;
80111;SDS011;69421;51.062;3.728;2023-05-21T00:33:14;5.00;;;3.58;;
80111;SDS011;69421;51.062;3.728;2023-05-21T00:35:40;4.68;;;3.05;;
80111;SDS011;69421;51.062;3.728;2023-05-21T00:38:06;3.13;;;2.60;;
80111;SDS011;69421;51.062;3.728;2023-05-21T00:40:33;3.38;;;2.42;;
80111;SDS011;69421;51.062;3.728;2023-05-21T00:42:59;4.03;;;2.72;;
80111;SDS011;69421;51.062;3.728;2023-05-21T00:45:26;4.80;;;2.35;;
80111;SDS011;69421;51.062;3.728;2023-05-21T00:47:51;7.95;;;2.88;;
80111;SDS011;69421;51.062;3.728;2023-05-21T00:50:20;3.15;;;2.15;;
80111;SDS011;69421;51.062;3.728;2023-05-21T00:52:47;5.10;;;2.33;;
80111;SDS011;69421;51.062;3.728;2023-05-21T00:55:13;3.80;;;2.35;;
80111;SDS011;69421;51.062;3.728;2023-05-21T00:57:39;3.80;;;2.38;;
80111;SDS011;69421;51.062;3.728;2023-05-21T01:00:05;4.85;;;2.65;;
80111;SDS011;69421;51.062;3.728;2023-05-21T01:02:33;5.85;;;2.45;;
80111;SDS011;69421;51.062;3.728;2023-05-21T01:05:01;3.05;;;2.75;;
80111;SDS011;69421;51.062;3.728;2023-05-21T01:07:28;3.05;;;2.65;;
80111;SDS011;69421;51.062;3.728;2023-05-21T01:09:54;7.63;;;2.90;;
80111;SDS011;69421;51.062;3.728;2023-05-21T01:12:20;3.38;;;3.08;;
80111;SDS011;69421;51.062;3.728;2023-05-21T01:14:47;6.65;;;2.83;;
80111;SDS011;69421;51.062;3.728;2023-05-21T01:17:13;4.13;;;2.58;;
80111;SDS011;69421;51.062;3.728;2023-05-21T01:19:40;4.45;;;2.72;;
80111;SDS011;69421;51.062;3.728;2023-05-21T01:22:06;3.47;;;3.00;;
80111;SDS011;69421;51.062;3.728;2023-05-21T01:24:32;4.13;;;2.90;;
80111;SDS011;69421;51.062;3.728;2023-05-21T01:26:59;4.20;;;2.70;;
80111;SDS011;69421;51.062;3.728;2023-05-21T01:29:25;5.70;;;3.15;;
80111;SDS011;69421;51.062;3.728;2023-05-21T01:32:04;3.28;;;2.25;;
80111;SDS011;69421;51.062;3.728;2023-05-21T01:34:58;2.97;;;2.67;;
80111;SDS011;69421;51.062;3.728;2023-05-21T01:37:30;3.53;;;2.90;;
80111;SDS011;69421;51.062;3.728;2023-05-21T01:40:04;4.78;;;3.42;;
80111;SDS011;69421;51.062;3.728;2023-05-21T01:42:38;5.22;;;3.03;;
80111;SDS011;69421;51.062;3.728;2023-05-21T01:45:08;7.03;;;3.72;;
80111;SDS011;69421;51.062;3.728;2023-05-21T01:47:34;4.68;;;3.58;;
80111;SDS011;69421;51.062;3.728;2023-05-21T01:50:02;5.13;;;2.70;;
80111;SDS011;69421;51.062;3.728;2023-05-21T01:52:29;5.55;;;3.13;;
80111;SDS011;69421;51.062;3.728;2023-05-21T01:54:55;5.15;;;3.72;;
80111;SDS011;69421;51.062;3.728;2023-05-21T01:57:21;4.68;;;2.83;;
80111;SDS011;69421;51.062;3.728;2023-05-21T01:59:47;3.78;;;3.17;;
80111;SDS011;69421;51.062;3.728;2023-05-21T02:02:13;5.07;;;3.63;;
80111;SDS011;69421;51.062;3.728;2023-05-21T02:04:38;5.00;;;3.30;;
80111;SDS011;69421;51.062;3.728;2023-05-21T02:07:08;4.32;;;2.83;;
80111;SDS011;69421;51.062;3.728;2023-05-21T02:09:34;3.58;;;2.88;;
80111;SDS011;69421;51.062;3.728;2023-05-21T02:11:59;3.33;;;2.92;;
80111;SDS011;69421;51.062;3.728;2023-05-21T02:14:25;5.13;;;2.90;;
80111;SDS011;69421;51.062;3.728;2023-05-21T02:16:51;4.95;;;3.25;;
80111;SDS011;69421;51.062;3.728;2023-05-21T02:19:16;5.00;;;3.30;;
80111;SDS011;69421;51.062;3.728;2023-05-21T02:21:42;5.38;;;2.97;;
80111;SDS011;69421;51.062;3.728;2023-05-21T02:24:08;5.07;;;2.92;;
80111;SDS011;69421;51.062;3.728;2023-05-21T02:26:33;4.70;;;3.47;;
80111;SDS011;69421;51.062;3.728;2023-05-21T02:28:59;4.95;;;3.40;;
80111;SDS011;69421;51.062;3.728;2023-05-21T02:31:25;4.43;;;2.63;;
80111;SDS011;69421;51.062;3.728;2023-05-21T02:33:51;5.03;;;3.47;;
80111;SDS011;69421;51.062;3.728;2023-05-21T02:36:16;5.93;;;2.97;;
80111;SDS011;69421;51.062;3.728;2023-05-21T02:38:46;5.10;;;3.15;;
80111;SDS011;69421;51.062;3.728;2023-05-21T02:41:11;5.40;;;3.42;;
80111;SDS011;69421;51.062;3.728;2023-05-21T02:43:37;5.25;;;3.65;;
80111;SDS011;69421;51.062;3.728;2023-05-21T02:46:03;4.68;;;3.30;;
80111;SDS011;69421;51.062;3.728;2023-05-21T02:48:30;5.30;;;3.88;;
80111;SDS011;69421;51.062;3.728;2023-05-21T02:50:55;7.95;;;3.78;;
80111;SDS011;69421;51.062;3.728;2023-05-21T02:53:21;7.63;;;4.65;;
80111;SDS011;69421;51.062;3.728;2023-05-21T02:55:47;9.10;;;4.47;;
80111;SDS011;69421;51.062;3.728;2023-05-21T02:58:12;7.50;;;4.35;;
80111;SDS011;69421;51.062;3.728;2023-05-21T03:00:39;13.30;;;4.70;;
80111;SDS011;69421;51.062;3.728;2023-05-21T03:03:05;5.50;;;4.13;;
80111;SDS011;69421;51.062;3.728;2023-05-21T03:05:30;10.02;;;5.05;;
80111;SDS011;69421;51.062;3.728;2023-05-21T03:07:56;9.02;;;5.28;;
80111;SDS011;69421;51.062;3.728;2023-05-21T03:10:21;7.57;;;5.82;;
80111;SDS011;69421;51.062;3.728;2023-05-21T03:12:47;7.15;;;5.28;;
80111;SDS011;69421;51.062;3.728;2023-05-21T03:15:13;9.52;;;6.63;;
80111;SDS011;69421;51.062;3.728;2023-05-21T03:17:39;7.22;;;5.95;;
80111;SDS011;69421;51.062;3.728;2023-05-21T03:20:06;7.57;;;6.80;;
80111;SDS011;69421;51.062;3.728;2023-05-21T03:22:33;10.10;;;7.10;;
80111;SDS011;69421;51.062;3.728;2023-05-21T03:24:59;10.48;;;7.18;;
80111;SDS011;69421;51.062;3.728;2023-05-21T03:27:26;9.65;;;7.43;;
80111;SDS011;69421;51.062;3.728;2023-05-21T03:29:51;10.40;;;8.02;;
80111;SDS011;69421;51.062;3.728;2023-05-21T03:32:19;9.48;;;7.20;;
80111;SDS011;69421;51.062;3.728;2023-05-21T03:34:45;10.35;;;7.93;;
80111;SDS011;69421;51.062;3.728;2023-05-21T03:37:11;11.85;;;8.93;;
80111;SDS011;69421;51.062;3.728;2023-05-21T03:39:36;10.65;;;7.28;;
80111;SDS011;69421;51.062;3.728;2023-05-21T03:42:02;6.97;;;6.28;;
80111;SDS011;69421;51.062;3.728;2023-05-21T03:44:28;8.68;;;7.03;;
80111;SDS011;69421;51.062;3.728;2023-05-21T03:46:56;9.85;;;8.05;;
80111;SDS011;69421;51.062;3.728;2023-05-21T03:49:22;12.60;;;7.65;;
80111;SDS011;69421;51.062;3.728;2023-05-21T03:51:48;9.25;;;7.70;;
80111;SDS011;69421;51.062;3.728;2023-05-21T03:54:14;9.57;;;8.00;;
80111;SDS011;69421;51.062;3.728;2023-05-21T03:56:40;10.35;;;8.10;;
80111;SDS011;69421;51.062;3.728;2023-05-21T03:59:06;10.52;;;9.00;;
80111;SDS011;69421;51.062;3.728;2023-05-21T04:01:31;10.30;;;8.43;;
80111;SDS011;69421;51.062;3.728;2023-05-21T04:03:57;13.02;;;9.00;;
80111;SDS011;69421;51.062;3.728;2023-05-21T04:06:22;13.05;;;9.73;;
80111;SDS011;69421;51.062;3.728;2023-05-21T04:08:48;9.73;;;8.02;;
80111;SDS011;69421;51.062;3.728;2023-05-21T04:11:14;9.73;;;8.70;;
80111;SDS011;69421;51.062;3.728;2023-05-21T04:13:40;12.70;;;9.20;;
80111;SDS011;69421;51.062;3.728;2023-05-21T04:16:05;10.80;;;9.40;;
80111;SDS011;69421;51.062;3.728;2023-05-21T04:18:33;13.40;;;9.32;;
80111;SDS011;69421;51.062;3.728;2023-05-21T04:20:59;10.65;;;8.50;;
80111;SDS011;69421;51.062;3.728;2023-05-21T04:23:26;12.07;;;9.40;;
80111;SDS011;69421;51.062;3.728;2023-05-21T04:25:51;11.98;;;10.70;;
80111;SDS011;69421;51.062;3.728;2023-05-21T04:28:18;11.07;;;9.50;;
80111;SDS011;69421;51.062;3.728;2023-05-21T04:30:45;11.88;;;9.63;;
80111;SDS011;69421;51.062;3.728;2023-05-21T04:33:11;9.38;;;8.32;;
80111;SDS011;69421;51.062;3.728;2023-05-21T04:35:39;12.68;;;8.38;;
80111;SDS011;69421;51.062;3.728;2023-05-21T04:38:08;9.57;;;8.57;;
80111;SDS011;69421;51.062;3.728;2023-05-21T04:40:34;14.60;;;10.07;;
80111;SDS011;69421;51.062;3.728;2023-05-21T04:42:59;10.77;;;8.23;;
80111;SDS011;69421;51.062;3.728;2023-05-21T04:45:26;11.50;;;9.70;;
80111;SDS011;69421;51.062;3.728;2023-05-21T04:47:52;9.35;;;8.30;;
80111;SDS011;69421;51.062;3.728;2023-05-21T04:50:17;11.48;;;8.88;;
80111;SDS011;69421;51.062;3.728;2023-05-21T04:52:44;10.02;;;9.02;;
80111;SDS011;69421;51.062;3.728;2023-05-21T04:55:10;12.15;;;9.43;;
80111;SDS011;69421;51.062;3.728;2023-05-21T04:57:36;11.70;;;9.88;;
80111;SDS011;69421;51.062;3.728;2023-05-21T05:00:01;10.50;;;9.45;;
80111;SDS011;69421;51.062;3.728;2023-05-21T05:02:30;10.55;;;9.43;;
80111;SDS011;69421;51.062;3.728;2023-05-21T05:04:56;11.40;;;10.13;;
80111;SDS011;69421;51.062;3.728;2023-05-21T05:07:21;13.02;;;10.52;;
80111;SDS011;69421;51.062;3.728;2023-05-21T05:09:47;12.95;;;10.05;;
80111;SDS011;69421;51.062;3.728;2023-05-21T05:12:12;12.98;;;10.48;;
80111;SDS011;69421;51.062;3.728;2023-05-21T05:14:38;11.85;;;10.65;;
80111;SDS011;69421;51.062;3.728;2023-05-21T05:17:03;10.98;;;9.88;;
80111;SDS011;69421;51.062;3.728;2023-05-21T05:19:30;11.30;;;10.30;;
80111;SDS011;69421;51.062;3.728;2023-05-21T05:21:55;14.07;;;9.70;;
80111;SDS011;69421;51.062;3.728;2023-05-21T05:24:21;12.00;;;10.43;;
80111;SDS011;69421;51.062;3.728;2023-05-21T05:26:46;15.52;;;11.05;;
80111;SDS011;69421;51.062;3.728;2023-05-21T05:29:12;12.23;;;9.88;;
80111;SDS011;69421;51.062;3.728;2023-05-21T05:31:37;11.80;;;9.57;;
80111;SDS011;69421;51.062;3.728;2023-05-21T05:34:03;14.85;;;9.77;;
80111;SDS011;69421;51.062;3.728;2023-05-21T05:36:28;11.30;;;10.13;;
80111;SDS011;69421;51.062;3.728;2023-05-21T05:38:55;11.27;;;10.10;;
80111;SDS011;69421;51.062;3.728;2023-05-21T05:41:21;14.02;;;10.07;;
80111;SDS011;69421;51.062;3.728;2023-05-21T05:43:46;12.85;;;9.73;;
80111;SDS011;69421;51.062;3.728;2023-05-21T05:46:12;12.30;;;10.65;;
80111;SDS011;69421;51.062;3.728;2023-05-21T05:48:38;12.25;;;9.82;;
80111;SDS011;69421;51.062;3.728;2023-05-21T05:51:03;12.40;;;9.35;;
80111;SDS011;69421;51.062;3.728;2023-05-21T05:53:29;11.85;;;9.75;;
80111;SDS011;69421;51.062;3.728;2023-05-21T05:55:56;11.07;;;9.93;;
80111;SDS011;69421;51.062;3.728;2023-05-21T05:58:22;11.85;;;9.20;;
80111;SDS011;69421;51.062;3.728;2023-05-21T06:00:47;12.18;;;9.55;;
80111;SDS011;69421;51.062;3.728;2023-05-21T06:03:13;11.63;;;10.27;;
80111;SDS011;69421;51.062;3.728;2023-05-21T06:05:38;13.55;;;10.27;;
80111;SDS011;69421;51.062;3.728;2023-05-21T06:08:04;15.35;;;9.77;;
80111;SDS011;69421;51.062;3.728;2023-05-21T06:10:30;11.27;;;9.57;;
80111;SDS011;69421;51.062;3.728;2023-05-21T06:12:56;10.98;;;8.98;;
80111;SDS011;69421;51.062;3.728;2023-05-21T06:15:21;12.85;;;9.25;;
80111;SDS011;69421;51.062;3.728;2023-05-21T06:17:47;12.77;;;8.82;;
80111;SDS011;69421;51.062;3.728;2023-05-21T06:20:12;12.10;;;9.38;;
80111;SDS011;69421;51.062;3.728;2023-05-21T06:22:38;11.88;;;9.27;;
80111;SDS011;69421;51.062;3.728;2023-05-21T06:25:04;9.18;;;8.27;;
80111;SDS011;69421;51.062;3.728;2023-05-21T06:27:30;9.93;;;8.95;;
80111;SDS011;69421;51.062;3.728;2023-05-21T06:29:56;11.52;;;9.20;;
80111;SDS011;69421;51.062;3.728;2023-05-21T06:32:21;11.32;;;8.38;;
80111;SDS011;69421;51.062;3.728;2023-05-21T06:34:48;8.55;;;7.65;;
80111;SDS011;69421;51.062;3.728;2023-05-21T06:37:17;9.25;;;7.47;;
80111;SDS011;69421;51.062;3.728;2023-05-21T06:39:43;10.65;;;7.47;;
80111;SDS011;69421;51.062;3.728;2023-05-21T06:42:09;11.82;;;7.80;;
80111;SDS011;69421;51.062;3.728;2023-05-21T06:44:34;11.40;;;8.43;;
80111;SDS011;69421;51.062;3.728;2023-05-21T06:47:00;9.87;;;8.07;;
80111;SDS011;69421;51.062;3.728;2023-05-21T06:49:25;10.10;;;8.32;;
80111;SDS011;69421;51.062;3.728;2023-05-21T06:51:51;8.88;;;7.03;;
80111;SDS011;69421;51.062;3.728;2023-05-21T06:54:17;11.50;;;7.53;;
80111;SDS011;69421;51.062;3.728;2023-05-21T06:56:42;11.20;;;8.18;;
80111;SDS011;69421;51.062;3.728;2023-05-21T06:59:08;11.73;;;7.50;;
80111;SDS011;69421;51.062;3.728;2023-05-21T07:01:34;9.45;;;7.57;;
80111;SDS011;69421;51.062;3.728;2023-05-21T07:04:00;9.27;;;6.38;;
80111;SDS011;69421;51.062;3.728;2023-05-21T07:06:25;9.95;;;6.53;;
80111;SDS011;69421;51.062;3.728;2023-05-21T07:08:51;9.00;;;6.63;;
80111;SDS011;69421;51.062;3.728;2023-05-21T07:11:17;10.25;;;7.00;;
80111;SDS011;69421;51.062;3.728;2023-05-21T07:13:42;10.10;;;5.95;;
80111;SDS011;69421;51.062;3.728;2023-05-21T07:16:08;8.98;;;6.40;;
80111;SDS011;69421;51.062;3.728;2023-05-21T07:18:33;10.23;;;6.97;;
80111;SDS011;69421;51.062;3.728;2023-05-21T07:20:59;10.40;;;7.35;;
80111;SDS011;69421;51.062;3.728;2023-05-21T07:23:25;8.00;;;6.75;;
80111;SDS011;69421;51.062;3.728;2023-05-21T07:25:51;10.15;;;5.93;;
80111;SDS011;69421;51.062;3.728;2023-05-21T07:28:16;7.80;;;5.85;;
80111;SDS011;69421;51.062;3.728;2023-05-21T07:30:42;7.97;;;5.72;;
80111;SDS011;69421;51.062;3.728;2023-05-21T07:33:07;10.38;;;6.13;;
80111;SDS011;69421;51.062;3.728;2023-05-21T07:35:33;8.13;;;5.85;;
80111;SDS011;69421;51.062;3.728;2023-05-21T07:38:00;8.30;;;6.75;;
80111;SDS011;69421;51.062;3.728;2023-05-21T07:40:26;6.32;;;5.03;;
80111;SDS011;69421;51.062;3.728;2023-05-21T07:42:51;7.32;;;5.50;;
80111;SDS011;69421;51.062;3.728;2023-05-21T07:45:17;9.40;;;5.53;;
80111;SDS011;69421;51.062;3.728;2023-05-21T07:47:43;13.15;;;5.70;;
80111;SDS011;69421;51.062;3.728;2023-05-21T07:50:10;7.68;;;5.63;;
80111;SDS011;69421;51.062;3.728;2023-05-21T07:52:36;7.97;;;5.82;;
80111;SDS011;69421;51.062;3.728;2023-05-21T07:55:01;7.43;;;5.65;;
80111;SDS011;69421;51.062;3.728;2023-05-21T07:57:27;6.85;;;5.60;;
80111;SDS011;69421;51.062;3.728;2023-05-21T07:59:53;7.40;;;5.57;;
80111;SDS011;69421;51.062;3.728;2023-05-21T08:02:18;7.47;;;6.13;;
80111;SDS011;69421;51.062;3.728;2023-05-21T08:04:44;10.10;;;6.38;;
80111;SDS011;69421;51.062;3.728;2023-05-21T08:07:09;9.10;;;5.95;;
80111;SDS011;69421;51.062;3.728;2023-05-21T08:09:36;8.23;;;6.45;;
80111;SDS011;69421;51.062;3.728;2023-05-21T08:12:02;10.43;;;6.85;;
80111;SDS011;69421;51.062;3.728;2023-05-21T08:14:28;9.35;;;6.47;;
80111;SDS011;69421;51.062;3.728;2023-05-21T08:16:53;9.55;;;6.28;;
80111;SDS011;69421;51.062;3.728;2023-05-21T08:19:19;8.82;;;5.90;;
80111;SDS011;69421;51.062;3.728;2023-05-21T08:21:45;10.85;;;6.90;;
80111;SDS011;69421;51.062;3.728;2023-05-21T08:24:11;7.13;;;5.90;;
80111;SDS011;69421;51.062;3.728;2023-05-21T08:26:37;6.45;;;5.75;;
80111;SDS011;69421;51.062;3.728;2023-05-21T08:29:02;7.28;;;6.47;;
80111;SDS011;69421;51.062;3.728;2023-05-21T08:31:28;9.98;;;6.55;;
80111;SDS011;69421;51.062;3.728;2023-05-21T08:33:54;8.82;;;6.07;;
80111;SDS011;69421;51.062;3.728;2023-05-21T08:36:20;8.32;;;5.75;;
80111;SDS011;69421;51.062;3.728;2023-05-21T08:38:46;10.32;;;6.85;;
80111;SDS011;69421;51.062;3.728;2023-05-21T08:41:12;6.90;;;6.25;;
80111;SDS011;69421;51.062;3.728;2023-05-21T08:43:38;8.52;;;6.50;;
80111;SDS011;69421;51.062;3.728;2023-05-21T08:46:04;9.15;;;6.35;;
80111;SDS011;69421;51.062;3.728;2023-05-21T08:48:30;8.35;;;6.00;;
80111;SDS011;69421;51.062;3.728;2023-05-21T08:50:55;7.03;;;5.40;;
80111;SDS011;69421;51.062;3.728;2023-05-21T08:53:23;6.75;;;5.45;;
80111;SDS011;69421;51.062;3.728;2023-05-21T08:55:50;8.00;;;6.72;;
80111;SDS011;69421;51.062;3.728;2023-05-21T08:58:17;7.18;;;5.43;;
80111;SDS011;69421;51.062;3.728;2023-05-21T09:00:42;8.55;;;5.47;;
80111;SDS011;69421;51.062;3.728;2023-05-21T09:03:09;8.32;;;6.18;;
80111;SDS011;69421;51.062;3.728;2023-05-21T09:05:43;6.95;;;5.72;;
80111;SDS011;69421;51.062;3.728;2023-05-21T09:08:13;8.70;;;5.40;;
80111;SDS011;69421;51.062;3.728;2023-05-21T09:10:49;6.68;;;5.47;;
80111;SDS011;69421;51.062;3.728;2023-05-21T09:13:16;8.10;;;6.13;;
80111;SDS011;69421;51.062;3.728;2023-05-21T09:15:45;17.80;;;6.20;;
80111;SDS011;69421;51.062;3.728;2023-05-21T09:18:12;7.88;;;6.38;;
80111;SDS011;69421;51.062;3.728;2023-05-21T09:20:38;8.30;;;6.53;;
80111;SDS011;69421;51.062;3.728;2023-05-21T09:23:04;8.00;;;6.13;;
80111;SDS011;69421;51.062;3.728;2023-05-21T09:25:31;7.63;;;6.03;;
80111;SDS011;69421;51.062;3.728;2023-05-21T09:27:57;9.98;;;6.00;;
80111;SDS011;69421;51.062;3.728;2023-05-21T09:30:23;8.20;;;6.80;;
80111;SDS011;69421;51.062;3.728;2023-05-21T09:32:56;12.30;;;8.15;;
80111;SDS011;69421;51.062;3.728;2023-05-21T09:35:22;10.30;;;7.93;;
80111;SDS011;69421;51.062;3.728;2023-05-21T09:37:48;8.15;;;7.15;;
80111;SDS011;69421;51.062;3.728;2023-05-21T09:40:15;9.63;;;7.68;;
80111;SDS011;69421;51.062;3.728;2023-05-21T09:42:48;10.90;;;7.43;;
80111;SDS011;69421;51.062;3.728;2023-05-21T09:45:18;13.35;;;8.68;;
80111;SDS011;69421;51.062;3.728;2023-05-21T09:47:45;9.30;;;7.40;;
80111;SDS011;69421;51.062;3.728;2023-05-21T09:50:22;10.40;;;8.75;;
80111;SDS011;69421;51.062;3.728;2023-05-21T09:52:50;11.30;;;8.25;;
80111;SDS011;69421;51.062;3.728;2023-05-21T09:55:17;10.13;;;7.60;;
80111;SDS011;69421;51.062;3.728;2023-05-21T09:57:44;10.70;;;8.10;;
80111;SDS011;69421;51.062;3.728;2023-05-21T10:02:46;9.48;;;8.10;;
80111;SDS011;69421;51.062;3.728;2023-05-21T10:05:13;11.38;;;8.38;;
80111;SDS011;69421;51.062;3.728;2023-05-21T10:07:51;12.55;;;7.60;;
80111;SDS011;69421;51.062;3.728;2023-05-21T10:10:19;10.23;;;8.15;;
80111;SDS011;69421;51.062;3.728;2023-05-21T10:12:47;8.55;;;7.55;;
80111;SDS011;69421;51.062;3.728;2023-05-21T10:15:17;11.40;;;8.48;;
80111;SDS011;69421;51.062;3.728;2023-05-21T10:17:44;11.57;;;8.55;;
80111;SDS011;69421;51.062;3.728;2023-05-21T10:20:11;7.88;;;7.07;;
80111;SDS011;69421;51.062;3.728;2023-05-21T10:22:37;8.93;;;6.95;;
80111;SDS011;69421;51.062;3.728;2023-05-21T10:25:04;10.98;;;8.68;;
80111;SDS011;69421;51.062;3.728;2023-05-21T10:27:31;12.57;;;9.48;;
80111;SDS011;69421;51.062;3.728;2023-05-21T10:29:58;9.45;;;7.72;;
80111;SDS011;69421;51.062;3.728;2023-05-21T10:32:23;9.40;;;8.10;;
80111;SDS011;69421;51.062;3.728;2023-05-21T10:34:52;10.05;;;7.88;;
80111;SDS011;69421;51.062;3.728;2023-05-21T10:37:18;10.13;;;8.00;;
80111;SDS011;69421;51.062;3.728;2023-05-21T10:39:44;9.85;;;8.85;;
80111;SDS011;69421;51.062;3.728;2023-05-21T10:47:59;12.85;;;9.45;;
80111;SDS011;69421;51.062;3.728;2023-05-21T10:50:41;12.50;;;11.20;;
80111;SDS011;69421;51.062;3.728;2023-05-21T10:53:30;11.90;;;9.52;;
80111;SDS011;69421;51.062;3.728;2023-05-21T11:01:13;9.93;;;8.90;;
80111;SDS011;69421;51.062;3.728;2023-05-21T11:03:39;13.13;;;10.80;;
80111;SDS011;69421;51.062;3.728;2023-05-21T11:06:04;12.68;;;8.65;;
80111;SDS011;69421;51.062;3.728;2023-05-21T11:08:30;9.73;;;8.10;;
80111;SDS011;69421;51.062;3.728;2023-05-21T11:10:59;11.18;;;8.75;;
80111;SDS011;69421;51.062;3.728;2023-05-21T11:13:26;11.02;;;8.25;;
80111;SDS011;69421;51.062;3.728;2023-05-21T11:21:11;14.48;;;12.38;;
80111;SDS011;69421;51.062;3.728;2023-05-21T11:26:16;22.67;;;15.45;;
80111;SDS011;69421;51.062;3.728;2023-05-21T11:28:42;12.80;;;9.13;;
80111;SDS011;69421;51.062;3.728;2023-05-21T11:31:26;10.43;;;8.50;;
80111;SDS011;69421;51.062;3.728;2023-05-21T11:36:43;8.77;;;7.57;;
80111;SDS011;69421;51.062;3.728;2023-05-21T11:39:11;9.50;;;8.50;;
80111;SDS011;69421;51.062;3.728;2023-05-21T11:41:55;12.75;;;9.98;;
80111;SDS011;69421;51.062;3.728;2023-05-21T11:44:40;14.45;;;11.45;;
80111;SDS011;69421;51.062;3.728;2023-05-21T11:47:12;15.30;;;12.25;;
80111;SDS011;69421;51.062;3.728;2023-05-21T11:49:39;12.68;;;9.73;;
80111;SDS011;69421;51.062;3.728;2023-05-21T11:52:06;10.50;;;8.98;;
80111;SDS011;69421;51.062;3.728;2023-05-21T11:54:33;10.27;;;9.02;;
80111;SDS011;69421;51.062;3.728;2023-05-21T11:57:06;13.13;;;9.00;;
80111;SDS011;69421;51.062;3.728;2023-05-21T11:59:32;14.98;;;9.52;;
80111;SDS011;69421;51.062;3.728;2023-05-21T12:01:59;10.38;;;8.73;;
80111;SDS011;69421;51.062;3.728;2023-05-21T12:04:31;10.88;;;8.48;;
80111;SDS011;69421;51.062;3.728;2023-05-21T12:07:03;12.75;;;8.88;;
80111;SDS011;69421;51.062;3.728;2023-05-21T12:09:46;11.35;;;9.65;;
80111;SDS011;69421;51.062;3.728;2023-05-21T12:12:14;12.82;;;9.88;;
80111;SDS011;69421;51.062;3.728;2023-05-21T12:14:44;11.85;;;9.43;;
80111;SDS011;69421;51.062;3.728;2023-05-21T12:17:10;11.18;;;8.93;;
80111;SDS011;69421;51.062;3.728;2023-05-21T12:19:37;14.45;;;11.15;;
80111;SDS011;69421;51.062;3.728;2023-05-21T12:22:03;11.30;;;8.95;;
80111;SDS011;69421;51.062;3.728;2023-05-21T12:24:29;10.73;;;8.95;;
80111;SDS011;69421;51.062;3.728;2023-05-21T12:26:59;11.55;;;9.90;;
80111;SDS011;69421;51.062;3.728;2023-05-21T12:29:29;10.60;;;8.60;;
80111;SDS011;69421;51.062;3.728;2023-05-21T12:31:57;11.18;;;8.40;;
80111;SDS011;69421;51.062;3.728;2023-05-21T12:34:37;11.18;;;8.90;;
80111;SDS011;69421;51.062;3.728;2023-05-21T12:37:30;12.68;;;9.73;;
80111;SDS011;69421;51.062;3.728;2023-05-21T12:39:59;16.33;;;11.07;;
80111;SDS011;69421;51.062;3.728;2023-05-21T12:42:31;12.65;;;8.10;;
80111;SDS011;69421;51.062;3.728;2023-05-21T12:45:09;10.93;;;7.90;;
80111;SDS011;69421;51.062;3.728;2023-05-21T12:47:35;10.27;;;7.20;;
80111;SDS011;69421;51.062;3.728;2023-05-21T12:50:06;12.82;;;8.25;;
80111;SDS011;69421;51.062;3.728;2023-05-21T12:52:33;13.57;;;8.23;;
80111;SDS011;69421;51.062;3.728;2023-05-21T12:54:59;12.85;;;9.10;;
80111;SDS011;69421;51.062;3.728;2023-05-21T12:57:34;14.13;;;8.35;;
80111;SDS011;69421;51.062;3.728;2023-05-21T13:00:00;13.07;;;9.02;;
80111;SDS011;69421;51.062;3.728;2023-05-21T13:02:30;13.90;;;7.95;;
80111;SDS011;69421;51.062;3.728;2023-05-21T13:05:06;10.98;;;6.60;;
80111;SDS011;69421;51.062;3.728;2023-05-21T13:07:34;9.82;;;6.82;;
80111;SDS011;69421;51.062;3.728;2023-05-21T13:10:00;9.18;;;6.25;;
80111;SDS011;69421;51.062;3.728;2023-05-21T13:12:27;11.70;;;7.05;;
80111;SDS011;69421;51.062;3.728;2023-05-21T13:14:59;11.30;;;7.13;;
80111;SDS011;69421;51.062;3.728;2023-05-21T13:17:26;10.63;;;6.95;;
80111;SDS011;69421;51.062;3.728;2023-05-21T13:22:46;11.30;;;7.90;;
80111;SDS011;69421;51.062;3.728;2023-05-21T13:25:13;11.57;;;6.18;;
80111;SDS011;69421;51.062;3.728;2023-05-21T13:27:42;9.98;;;6.07;;
80111;SDS011;69421;51.062;3.728;2023-05-21T13:30:08;8.88;;;5.65;;
80111;SDS011;69421;51.062;3.728;2023-05-21T13:32:35;7.65;;;5.93;;
80111;SDS011;69421;51.062;3.728;2023-05-21T13:35:01;9.50;;;5.93;;
80111;SDS011;69421;51.062;3.728;2023-05-21T13:37:27;12.52;;;7.03;;
80111;SDS011;69421;51.062;3.728;2023-05-21T13:39:52;14.38;;;7.38;;
80111;SDS011;69421;51.062;3.728;2023-05-21T13:42:18;11.55;;;7.40;;
80111;SDS011;69421;51.062;3.728;2023-05-21T13:44:44;11.13;;;6.38;;
80111;SDS011;69421;51.062;3.728;2023-05-21T13:47:10;12.07;;;6.75;;
80111;SDS011;69421;51.062;3.728;2023-05-21T13:49:36;9.50;;;6.47;;
80111;SDS011;69421;51.062;3.728;2023-05-21T13:52:14;18.85;;;8.75;;
80111;SDS011;69421;51.062;3.728;2023-05-21T13:54:49;14.65;;;7.20;;
80111;SDS011;69421;51.062;3.728;2023-05-21T13:57:14;9.30;;;6.25;;
80111;SDS011;69421;51.062;3.728;2023-05-21T13:59:40;13.13;;;6.50;;
80111;SDS011;69421;51.062;3.728;2023-05-21T14:02:06;12.82;;;7.55;;
80111;SDS011;69421;51.062;3.728;2023-05-21T14:04:33;10.57;;;6.57;;
80111;SDS011;69421;51.062;3.728;2023-05-21T14:06:59;10.10;;;5.82;;
80111;SDS011;69421;51.062;3.728;2023-05-21T14:09:25;9.02;;;5.97;;
80111;SDS011;69421;51.062;3.728;2023-05-21T14:11:53;12.68;;;6.43;;
80111;SDS011;69421;51.062;3.728;2023-05-21T14:14:20;13.63;;;6.65;;
80111;SDS011;69421;51.062;3.728;2023-05-21T14:16:45;8.65;;;5.78;;
80111;SDS011;69421;51.062;3.728;2023-05-21T14:19:11;13.52;;;6.63;;
80111;SDS011;69421;51.062;3.728;2023-05-21T14:21:37;10.25;;;6.13;;
80111;SDS011;69421;51.062;3.728;2023-05-21T14:24:02;10.38;;;7.50;;
80111;SDS011;69421;51.062;3.728;2023-05-21T14:26:28;15.55;;;5.75;;
80111;SDS011;69421;51.062;3.728;2023-05-21T14:28:54;11.60;;;5.68;;
80111;SDS011;69421;51.062;3.728;2023-05-21T14:31:20;10.43;;;6.38;;
80111;SDS011;69421;51.062;3.728;2023-05-21T14:33:47;10.98;;;6.28;;
80111;SDS011;69421;51.062;3.728;2023-05-21T14:36:13;10.98;;;7.03;;
80111;SDS011;69421;51.062;3.728;2023-05-21T14:38:39;11.32;;;6.70;;
80111;SDS011;69421;51.062;3.728;2023-05-21T14:41:04;11.65;;;6.55;;
80111;SDS011;69421;51.062;3.728;2023-05-21T14:43:31;10.60;;;6.10;;
80111;SDS011;69421;51.062;3.728;2023-05-21T14:45:57;13.00;;;5.78;;
80111;SDS011;69421;51.062;3.728;2023-05-21T14:48:22;12.20;;;6.28;;
80111;SDS011;69421;51.062;3.728;2023-05-21T14:50:49;11.43;;;6.30;;
80111;SDS011;69421;51.062;3.728;2023-05-21T14:53:15;13.15;;;8.57;;
80111;SDS011;69421;51.062;3.728;2023-05-21T14:55:41;11.70;;;8.70;;
80111;SDS011;69421;51.062;3.728;2023-05-21T14:58:07;10.73;;;6.55;;
80111;SDS011;69421;51.062;3.728;2023-05-21T15:00:33;10.15;;;6.60;;
80111;SDS011;69421;51.062;3.728;2023-05-21T15:02:59;12.85;;;8.18;;
80111;SDS011;69421;51.062;3.728;2023-05-21T15:05:25;23.63;;;14.52;;
80111;SDS011;69421;51.062;3.728;2023-05-21T15:07:52;11.02;;;7.53;;